Terminal Aerodrome Forecast
Issued by NWS

Home | Current Version | Previous Version | Text Only | Print | Product List | Glossary On
Versions: 1 2 3 4 5 6 7 8 9 10 11 12 13 14 15 16 17 18 19 20 21 22 23 24 25 26 27 28 29 30 31 32
020
FTUS43 KDLH 181203 AAA
TAFHIB
TAF AMD
KHIB 181203Z 1812/1912 VRB03KT P6SM BKN050 WS020/26035KT
      TEMPO 1812/1813 3SM -SN BR BKN015
     FM181300 29005KT P6SM BKN025
     FM181900 28006KT P6SM SCT035
     FM190500 VRB03KT 4SM BR BKN045=

USA.gov is the U.S. government's official web portal to all federal, state and local government web resources and services.